sensor_id;sensor_type;location;lat;lon;timestamp;P1;durP1;ratioP1;P2;durP2;ratioP2
16320;SDS011;8269;50.990;4.494;2022-08-19T00:01:38;18.95;;;17.15;;
16320;SDS011;8269;50.990;4.494;2022-08-19T00:04:06;19.23;;;17.52;;
16320;SDS011;8269;50.990;4.494;2022-08-19T00:06:34;21.73;;;19.52;;
16320;SDS011;8269;50.990;4.494;2022-08-19T00:09:02;22.58;;;20.48;;
16320;SDS011;8269;50.990;4.494;2022-08-19T00:11:29;24.35;;;19.65;;
16320;SDS011;8269;50.990;4.494;2022-08-19T00:13:56;23.95;;;21.65;;
16320;SDS011;8269;50.990;4.494;2022-08-19T00:16:22;23.85;;;21.50;;
16320;SDS011;8269;50.990;4.494;2022-08-19T00:18:49;23.77;;;21.58;;
16320;SDS011;8269;50.990;4.494;2022-08-19T00:21:14;24.63;;;22.33;;
16320;SDS011;8269;50.990;4.494;2022-08-19T00:23:41;26.30;;;23.55;;
16320;SDS011;8269;50.990;4.494;2022-08-19T00:26:08;29.08;;;26.20;;
16320;SDS011;8269;50.990;4.494;2022-08-19T00:28:34;29.27;;;26.48;;
16320;SDS011;8269;50.990;4.494;2022-08-19T00:31:01;29.35;;;26.45;;
16320;SDS011;8269;50.990;4.494;2022-08-19T00:33:31;30.75;;;27.77;;
16320;SDS011;8269;50.990;4.494;2022-08-19T00:35:57;31.17;;;28.13;;
16320;SDS011;8269;50.990;4.494;2022-08-19T00:38:24;33.75;;;30.40;;
16320;SDS011;8269;50.990;4.494;2022-08-19T00:40:50;34.20;;;30.55;;
16320;SDS011;8269;50.990;4.494;2022-08-19T00:43:18;33.47;;;30.17;;
16320;SDS011;8269;50.990;4.494;2022-08-19T00:45:46;37.25;;;33.53;;
16320;SDS011;8269;50.990;4.494;2022-08-19T00:48:12;35.92;;;32.47;;
16320;SDS011;8269;50.990;4.494;2022-08-19T00:50:41;38.55;;;34.60;;
16320;SDS011;8269;50.990;4.494;2022-08-19T00:53:09;40.28;;;36.13;;
16320;SDS011;8269;50.990;4.494;2022-08-19T00:55:37;44.85;;;40.05;;
16320;SDS011;8269;50.990;4.494;2022-08-19T00:58:04;44.00;;;39.38;;
16320;SDS011;8269;50.990;4.494;2022-08-19T01:00:33;44.63;;;39.88;;
16320;SDS011;8269;50.990;4.494;2022-08-19T01:03:03;46.42;;;41.72;;
16320;SDS011;8269;50.990;4.494;2022-08-19T01:05:31;47.63;;;42.58;;
16320;SDS011;8269;50.990;4.494;2022-08-19T01:07:59;48.90;;;43.78;;
16320;SDS011;8269;50.990;4.494;2022-08-19T01:10:28;50.35;;;44.88;;
16320;SDS011;8269;50.990;4.494;2022-08-19T01:12:57;51.58;;;45.83;;
16320;SDS011;8269;50.990;4.494;2022-08-19T01:15:26;52.15;;;46.47;;
16320;SDS011;8269;50.990;4.494;2022-08-19T01:17:54;56.13;;;48.15;;
16320;SDS011;8269;50.990;4.494;2022-08-19T01:20:22;55.28;;;48.72;;
16320;SDS011;8269;50.990;4.494;2022-08-19T01:22:50;54.72;;;47.70;;
16320;SDS011;8269;50.990;4.494;2022-08-19T01:25:22;55.65;;;48.67;;
16320;SDS011;8269;50.990;4.494;2022-08-19T01:27:55;56.47;;;49.33;;
16320;SDS011;8269;50.990;4.494;2022-08-19T01:30:23;55.83;;;49.67;;
16320;SDS011;8269;50.990;4.494;2022-08-19T01:32:51;56.05;;;49.72;;
16320;SDS011;8269;50.990;4.494;2022-08-19T01:35:18;56.45;;;49.95;;
16320;SDS011;8269;50.990;4.494;2022-08-19T01:37:49;58.92;;;50.47;;
16320;SDS011;8269;50.990;4.494;2022-08-19T01:40:17;64.00;;;51.45;;
16320;SDS011;8269;50.990;4.494;2022-08-19T01:42:49;61.30;;;51.42;;
16320;SDS011;8269;50.990;4.494;2022-08-19T01:45:16;63.70;;;52.88;;
16320;SDS011;8269;50.990;4.494;2022-08-19T01:47:42;62.40;;;52.90;;
16320;SDS011;8269;50.990;4.494;2022-08-19T01:50:09;67.53;;;55.63;;
16320;SDS011;8269;50.990;4.494;2022-08-19T01:52:36;65.13;;;54.65;;
16320;SDS011;8269;50.990;4.494;2022-08-19T01:55:04;66.30;;;55.10;;
16320;SDS011;8269;50.990;4.494;2022-08-19T01:57:31;68.60;;;54.17;;
16320;SDS011;8269;50.990;4.494;2022-08-19T01:59:57;66.72;;;56.45;;
16320;SDS011;8269;50.990;4.494;2022-08-19T02:02:24;66.97;;;54.03;;
16320;SDS011;8269;50.990;4.494;2022-08-19T02:04:50;68.90;;;54.72;;
16320;SDS011;8269;50.990;4.494;2022-08-19T02:07:18;72.85;;;56.05;;
16320;SDS011;8269;50.990;4.494;2022-08-19T02:09:46;66.13;;;54.20;;
16320;SDS011;8269;50.990;4.494;2022-08-19T02:12:13;65.38;;;55.40;;
16320;SDS011;8269;50.990;4.494;2022-08-19T02:14:39;73.40;;;57.83;;
16320;SDS011;8269;50.990;4.494;2022-08-19T02:17:05;71.10;;;56.83;;
16320;SDS011;8269;50.990;4.494;2022-08-19T02:19:31;67.88;;;56.50;;
16320;SDS011;8269;50.990;4.494;2022-08-19T02:21:58;70.00;;;57.13;;
16320;SDS011;8269;50.990;4.494;2022-08-19T02:24:24;76.90;;;57.78;;
16320;SDS011;8269;50.990;4.494;2022-08-19T02:26:51;71.55;;;58.13;;
16320;SDS011;8269;50.990;4.494;2022-08-19T02:29:17;71.07;;;56.22;;
16320;SDS011;8269;50.990;4.494;2022-08-19T02:31:43;74.75;;;56.28;;
16320;SDS011;8269;50.990;4.494;2022-08-19T02:34:09;69.72;;;55.38;;
16320;SDS011;8269;50.990;4.494;2022-08-19T02:36:35;72.45;;;55.50;;
16320;SDS011;8269;50.990;4.494;2022-08-19T02:39:00;71.32;;;55.05;;
16320;SDS011;8269;50.990;4.494;2022-08-19T02:41:27;65.78;;;54.15;;
16320;SDS011;8269;50.990;4.494;2022-08-19T02:43:56;68.80;;;54.10;;
16320;SDS011;8269;50.990;4.494;2022-08-19T02:46:26;67.43;;;54.03;;
16320;SDS011;8269;50.990;4.494;2022-08-19T02:48:55;67.03;;;54.08;;
16320;SDS011;8269;50.990;4.494;2022-08-19T02:51:24;65.68;;;52.42;;
16320;SDS011;8269;50.990;4.494;2022-08-19T02:53:54;66.00;;;52.83;;
16320;SDS011;8269;50.990;4.494;2022-08-19T02:56:21;68.22;;;53.90;;
16320;SDS011;8269;50.990;4.494;2022-08-19T02:58:49;70.10;;;54.92;;
16320;SDS011;8269;50.990;4.494;2022-08-19T03:03:46;65.20;;;52.03;;
16320;SDS011;8269;50.990;4.494;2022-08-19T03:06:13;66.18;;;50.42;;
16320;SDS011;8269;50.990;4.494;2022-08-19T03:08:41;66.63;;;52.67;;
16320;SDS011;8269;50.990;4.494;2022-08-19T03:11:12;60.67;;;49.72;;
16320;SDS011;8269;50.990;4.494;2022-08-19T03:13:48;65.28;;;50.75;;
16320;SDS011;8269;50.990;4.494;2022-08-19T03:16:16;63.03;;;50.25;;
16320;SDS011;8269;50.990;4.494;2022-08-19T03:18:43;62.45;;;48.80;;
16320;SDS011;8269;50.990;4.494;2022-08-19T03:21:09;60.63;;;47.60;;
16320;SDS011;8269;50.990;4.494;2022-08-19T03:23:39;57.67;;;45.95;;
16320;SDS011;8269;50.990;4.494;2022-08-19T03:26:05;58.95;;;46.22;;
16320;SDS011;8269;50.990;4.494;2022-08-19T03:28:31;58.42;;;47.90;;
16320;SDS011;8269;50.990;4.494;2022-08-19T03:30:58;57.75;;;46.28;;
16320;SDS011;8269;50.990;4.494;2022-08-19T03:33:26;58.38;;;46.10;;
16320;SDS011;8269;50.990;4.494;2022-08-19T03:36:15;58.80;;;46.65;;
16320;SDS011;8269;50.990;4.494;2022-08-19T03:38:42;56.75;;;44.65;;
16320;SDS011;8269;50.990;4.494;2022-08-19T03:41:11;53.30;;;43.63;;
16320;SDS011;8269;50.990;4.494;2022-08-19T03:43:40;51.05;;;41.70;;
16320;SDS011;8269;50.990;4.494;2022-08-19T03:46:09;55.10;;;42.88;;
16320;SDS011;8269;50.990;4.494;2022-08-19T03:48:37;49.30;;;41.53;;
16320;SDS011;8269;50.990;4.494;2022-08-19T03:51:05;52.55;;;41.85;;
16320;SDS011;8269;50.990;4.494;2022-08-19T03:53:31;50.45;;;41.40;;
16320;SDS011;8269;50.990;4.494;2022-08-19T03:55:59;47.95;;;39.65;;
16320;SDS011;8269;50.990;4.494;2022-08-19T03:58:26;43.30;;;37.45;;
16320;SDS011;8269;50.990;4.494;2022-08-19T04:00:54;49.22;;;39.90;;
16320;SDS011;8269;50.990;4.494;2022-08-19T04:03:26;47.97;;;38.72;;
16320;SDS011;8269;50.990;4.494;2022-08-19T04:05:52;47.15;;;39.22;;
16320;SDS011;8269;50.990;4.494;2022-08-19T04:08:19;45.55;;;38.95;;
16320;SDS011;8269;50.990;4.494;2022-08-19T04:10:47;48.28;;;39.38;;
16320;SDS011;8269;50.990;4.494;2022-08-19T04:13:14;47.40;;;37.90;;
16320;SDS011;8269;50.990;4.494;2022-08-19T04:15:42;48.33;;;38.50;;
16320;SDS011;8269;50.990;4.494;2022-08-19T04:18:09;49.90;;;38.30;;
16320;SDS011;8269;50.990;4.494;2022-08-19T04:20:46;49.38;;;38.50;;
16320;SDS011;8269;50.990;4.494;2022-08-19T04:23:13;48.13;;;37.92;;
16320;SDS011;8269;50.990;4.494;2022-08-19T04:25:40;50.28;;;39.42;;
16320;SDS011;8269;50.990;4.494;2022-08-19T04:28:08;46.65;;;37.03;;
16320;SDS011;8269;50.990;4.494;2022-08-19T04:30:39;47.63;;;38.85;;
16320;SDS011;8269;50.990;4.494;2022-08-19T04:33:12;46.60;;;37.40;;
16320;SDS011;8269;50.990;4.494;2022-08-19T04:35:43;48.30;;;38.08;;
16320;SDS011;8269;50.990;4.494;2022-08-19T04:38:10;50.95;;;38.40;;
16320;SDS011;8269;50.990;4.494;2022-08-19T04:40:45;45.42;;;37.10;;
16320;SDS011;8269;50.990;4.494;2022-08-19T04:43:31;47.30;;;36.95;;
16320;SDS011;8269;50.990;4.494;2022-08-19T04:45:58;46.80;;;36.25;;
16320;SDS011;8269;50.990;4.494;2022-08-19T04:48:30;45.42;;;35.85;;
16320;SDS011;8269;50.990;4.494;2022-08-19T04:50:57;40.38;;;34.38;;
16320;SDS011;8269;50.990;4.494;2022-08-19T04:53:24;43.03;;;33.92;;
16320;SDS011;8269;50.990;4.494;2022-08-19T04:55:57;42.95;;;34.53;;
16320;SDS011;8269;50.990;4.494;2022-08-19T04:58:24;38.92;;;33.03;;
16320;SDS011;8269;50.990;4.494;2022-08-19T05:00:52;47.80;;;33.05;;
16320;SDS011;8269;50.990;4.494;2022-08-19T05:03:18;40.00;;;31.27;;
16320;SDS011;8269;50.990;4.494;2022-08-19T05:05:44;37.88;;;31.65;;
16320;SDS011;8269;50.990;4.494;2022-08-19T05:08:14;39.83;;;31.38;;
16320;SDS011;8269;50.990;4.494;2022-08-19T05:10:46;42.22;;;31.48;;
16320;SDS011;8269;50.990;4.494;2022-08-19T05:13:13;35.97;;;28.50;;
16320;SDS011;8269;50.990;4.494;2022-08-19T05:15:40;37.88;;;27.70;;
16320;SDS011;8269;50.990;4.494;2022-08-19T05:18:05;37.58;;;27.80;;
16320;SDS011;8269;50.990;4.494;2022-08-19T05:20:49;35.85;;;26.85;;
16320;SDS011;8269;50.990;4.494;2022-08-19T05:23:33;33.00;;;26.15;;
16320;SDS011;8269;50.990;4.494;2022-08-19T05:25:59;34.10;;;25.27;;
16320;SDS011;8269;50.990;4.494;2022-08-19T05:28:25;34.30;;;25.10;;
16320;SDS011;8269;50.990;4.494;2022-08-19T05:30:50;36.22;;;24.20;;
16320;SDS011;8269;50.990;4.494;2022-08-19T05:33:17;36.85;;;24.52;;
16320;SDS011;8269;50.990;4.494;2022-08-19T05:35:43;33.58;;;23.58;;
16320;SDS011;8269;50.990;4.494;2022-08-19T05:38:09;31.77;;;23.42;;
16320;SDS011;8269;50.990;4.494;2022-08-19T05:40:36;29.35;;;22.02;;
16320;SDS011;8269;50.990;4.494;2022-08-19T05:43:07;28.40;;;20.83;;
16320;SDS011;8269;50.990;4.494;2022-08-19T05:45:37;26.60;;;19.58;;
16320;SDS011;8269;50.990;4.494;2022-08-19T05:48:04;28.35;;;20.52;;
16320;SDS011;8269;50.990;4.494;2022-08-19T05:50:30;24.27;;;20.02;;
16320;SDS011;8269;50.990;4.494;2022-08-19T05:52:56;26.38;;;18.70;;
16320;SDS011;8269;50.990;4.494;2022-08-19T05:55:21;26.58;;;19.52;;
16320;SDS011;8269;50.990;4.494;2022-08-19T05:57:48;25.70;;;18.10;;
16320;SDS011;8269;50.990;4.494;2022-08-19T06:00:15;23.02;;;17.38;;
16320;SDS011;8269;50.990;4.494;2022-08-19T06:02:41;23.95;;;16.90;;
16320;SDS011;8269;50.990;4.494;2022-08-19T06:05:07;23.30;;;17.27;;
16320;SDS011;8269;50.990;4.494;2022-08-19T06:07:34;24.75;;;17.08;;
16320;SDS011;8269;50.990;4.494;2022-08-19T06:10:00;20.52;;;16.27;;
16320;SDS011;8269;50.990;4.494;2022-08-19T06:12:29;23.98;;;16.58;;
16320;SDS011;8269;50.990;4.494;2022-08-19T06:15:00;21.23;;;16.30;;
16320;SDS011;8269;50.990;4.494;2022-08-19T06:17:30;26.73;;;15.75;;
16320;SDS011;8269;50.990;4.494;2022-08-19T06:19:56;18.38;;;14.93;;
16320;SDS011;8269;50.990;4.494;2022-08-19T06:22:23;19.08;;;14.57;;
16320;SDS011;8269;50.990;4.494;2022-08-19T06:24:48;22.15;;;15.35;;
16320;SDS011;8269;50.990;4.494;2022-08-19T06:27:17;22.35;;;15.27;;
16320;SDS011;8269;50.990;4.494;2022-08-19T06:29:43;21.35;;;14.88;;
16320;SDS011;8269;50.990;4.494;2022-08-19T06:32:11;23.45;;;15.63;;
16320;SDS011;8269;50.990;4.494;2022-08-19T06:34:40;18.77;;;14.73;;
16320;SDS011;8269;50.990;4.494;2022-08-19T06:37:06;23.20;;;14.82;;
16320;SDS011;8269;50.990;4.494;2022-08-19T06:39:33;23.23;;;15.60;;
16320;SDS011;8269;50.990;4.494;2022-08-19T06:42:02;20.95;;;14.43;;
16320;SDS011;8269;50.990;4.494;2022-08-19T06:44:32;26.27;;;16.65;;
16320;SDS011;8269;50.990;4.494;2022-08-19T06:47:00;23.63;;;16.48;;
16320;SDS011;8269;50.990;4.494;2022-08-19T06:49:30;23.63;;;14.93;;
16320;SDS011;8269;50.990;4.494;2022-08-19T06:51:56;21.73;;;15.48;;
16320;SDS011;8269;50.990;4.494;2022-08-19T06:54:23;23.63;;;15.82;;
16320;SDS011;8269;50.990;4.494;2022-08-19T06:56:50;22.60;;;14.85;;
16320;SDS011;8269;50.990;4.494;2022-08-19T06:59:17;18.80;;;14.52;;
16320;SDS011;8269;50.990;4.494;2022-08-19T07:01:46;18.63;;;14.27;;
16320;SDS011;8269;50.990;4.494;2022-08-19T07:04:15;17.55;;;14.27;;
16320;SDS011;8269;50.990;4.494;2022-08-19T07:06:42;20.98;;;14.88;;
16320;SDS011;8269;50.990;4.494;2022-08-19T07:09:09;18.95;;;16.20;;
16320;SDS011;8269;50.990;4.494;2022-08-19T07:11:37;19.73;;;14.05;;
16320;SDS011;8269;50.990;4.494;2022-08-19T07:14:03;18.58;;;13.63;;
16320;SDS011;8269;50.990;4.494;2022-08-19T07:16:31;20.75;;;15.25;;
16320;SDS011;8269;50.990;4.494;2022-08-19T07:18:57;16.88;;;13.40;;
16320;SDS011;8269;50.990;4.494;2022-08-19T07:21:29;19.83;;;13.88;;
16320;SDS011;8269;50.990;4.494;2022-08-19T07:23:55;18.25;;;14.55;;
16320;SDS011;8269;50.990;4.494;2022-08-19T07:26:25;19.60;;;13.48;;
16320;SDS011;8269;50.990;4.494;2022-08-19T07:28:52;18.10;;;13.27;;
16320;SDS011;8269;50.990;4.494;2022-08-19T07:31:21;17.92;;;13.48;;
16320;SDS011;8269;50.990;4.494;2022-08-19T07:33:49;16.58;;;13.30;;
16320;SDS011;8269;50.990;4.494;2022-08-19T07:36:17;15.15;;;12.23;;
16320;SDS011;8269;50.990;4.494;2022-08-19T07:38:46;15.50;;;12.57;;
16320;SDS011;8269;50.990;4.494;2022-08-19T07:41:14;13.73;;;11.50;;
16320;SDS011;8269;50.990;4.494;2022-08-19T07:43:43;15.82;;;11.98;;
16320;SDS011;8269;50.990;4.494;2022-08-19T07:46:09;15.20;;;11.75;;
16320;SDS011;8269;50.990;4.494;2022-08-19T07:48:35;16.48;;;11.98;;
16320;SDS011;8269;50.990;4.494;2022-08-19T07:51:02;14.40;;;11.02;;
16320;SDS011;8269;50.990;4.494;2022-08-19T07:53:30;13.95;;;10.93;;
16320;SDS011;8269;50.990;4.494;2022-08-19T07:55:58;14.23;;;11.00;;
16320;SDS011;8269;50.990;4.494;2022-08-19T07:58:29;17.38;;;11.38;;
16320;SDS011;8269;50.990;4.494;2022-08-19T08:00:57;13.50;;;10.45;;
16320;SDS011;8269;50.990;4.494;2022-08-19T08:03:24;14.90;;;11.50;;
16320;SDS011;8269;50.990;4.494;2022-08-19T08:06:10;15.88;;;10.85;;
16320;SDS011;8269;50.990;4.494;2022-08-19T08:08:55;13.48;;;10.13;;
16320;SDS011;8269;50.990;4.494;2022-08-19T08:11:36;14.13;;;10.73;;
16320;SDS011;8269;50.990;4.494;2022-08-19T08:14:02;13.70;;;10.00;;
16320;SDS011;8269;50.990;4.494;2022-08-19T08:16:29;12.52;;;10.40;;
16320;SDS011;8269;50.990;4.494;2022-08-19T08:18:58;12.27;;;8.90;;
16320;SDS011;8269;50.990;4.494;2022-08-19T08:21:24;9.25;;;7.25;;
16320;SDS011;8269;50.990;4.494;2022-08-19T08:23:49;9.45;;;7.38;;
16320;SDS011;8269;50.990;4.494;2022-08-19T08:26:20;11.60;;;8.00;;
16320;SDS011;8269;50.990;4.494;2022-08-19T08:28:45;10.55;;;6.90;;
16320;SDS011;8269;50.990;4.494;2022-08-19T08:31:13;12.15;;;7.88;;
16320;SDS011;8269;50.990;4.494;2022-08-19T08:33:39;8.80;;;6.75;;
16320;SDS011;8269;50.990;4.494;2022-08-19T08:36:07;10.27;;;7.07;;
16320;SDS011;8269;50.990;4.494;2022-08-19T08:38:34;10.88;;;6.60;;
16320;SDS011;8269;50.990;4.494;2022-08-19T08:41:03;9.73;;;6.63;;
16320;SDS011;8269;50.990;4.494;2022-08-19T08:43:44;12.68;;;6.57;;
16320;SDS011;8269;50.990;4.494;2022-08-19T08:46:34;11.93;;;6.35;;
16320;SDS011;8269;50.990;4.494;2022-08-19T08:51:54;9.60;;;6.03;;
16320;SDS011;8269;50.990;4.494;2022-08-19T08:54:35;9.00;;;5.95;;
16320;SDS011;8269;50.990;4.494;2022-08-19T08:57:17;12.63;;;6.63;;
16320;SDS011;8269;50.990;4.494;2022-08-19T08:59:48;10.93;;;6.85;;
16320;SDS011;8269;50.990;4.494;2022-08-19T09:02:18;9.98;;;6.13;;
16320;SDS011;8269;50.990;4.494;2022-08-19T09:04:44;9.70;;;6.07;;
16320;SDS011;8269;50.990;4.494;2022-08-19T09:07:18;11.75;;;6.72;;
16320;SDS011;8269;50.990;4.494;2022-08-19T09:09:51;9.95;;;6.40;;
16320;SDS011;8269;50.990;4.494;2022-08-19T09:15:29;11.48;;;6.95;;
16320;SDS011;8269;50.990;4.494;2022-08-19T09:18:02;11.65;;;7.10;;
16320;SDS011;8269;50.990;4.494;2022-08-19T09:20:29;14.90;;;7.80;;
16320;SDS011;8269;50.990;4.494;2022-08-19T09:22:56;12.52;;;7.28;;
16320;SDS011;8269;50.990;4.494;2022-08-19T09:25:22;11.10;;;7.30;;
16320;SDS011;8269;50.990;4.494;2022-08-19T09:27:48;11.45;;;8.00;;
16320;SDS011;8269;50.990;4.494;2022-08-19T09:30:17;8.95;;;6.63;;
16320;SDS011;8269;50.990;4.494;2022-08-19T09:32:48;11.55;;;6.60;;
16320;SDS011;8269;50.990;4.494;2022-08-19T09:35:17;10.23;;;7.40;;
16320;SDS011;8269;50.990;4.494;2022-08-19T09:37:43;9.98;;;7.60;;
16320;SDS011;8269;50.990;4.494;2022-08-19T09:40:09;10.23;;;7.22;;
16320;SDS011;8269;50.990;4.494;2022-08-19T09:42:36;11.13;;;7.60;;
16320;SDS011;8269;50.990;4.494;2022-08-19T09:45:02;11.10;;;7.63;;
16320;SDS011;8269;50.990;4.494;2022-08-19T09:47:29;12.23;;;7.68;;
16320;SDS011;8269;50.990;4.494;2022-08-19T09:49:55;12.05;;;8.18;;
16320;SDS011;8269;50.990;4.494;2022-08-19T09:52:20;12.73;;;8.20;;
16320;SDS011;8269;50.990;4.494;2022-08-19T09:54:46;15.13;;;8.07;;
16320;SDS011;8269;50.990;4.494;2022-08-19T09:57:12;11.38;;;8.05;;
16320;SDS011;8269;50.990;4.494;2022-08-19T09:59:38;16.08;;;7.78;;
16320;SDS011;8269;50.990;4.494;2022-08-19T10:02:04;12.55;;;7.65;;
16320;SDS011;8269;50.990;4.494;2022-08-19T10:04:29;10.57;;;7.65;;
16320;SDS011;8269;50.990;4.494;2022-08-19T10:07:14;10.02;;;7.05;;
16320;SDS011;8269;50.990;4.494;2022-08-19T10:09:40;10.75;;;7.30;;
16320;SDS011;8269;50.990;4.494;2022-08-19T10:12:06;10.35;;;7.28;;
16320;SDS011;8269;50.990;4.494;2022-08-19T10:14:32;9.90;;;7.40;;
16320;SDS011;8269;50.990;4.494;2022-08-19T10:16:58;10.30;;;7.28;;
16320;SDS011;8269;50.990;4.494;2022-08-19T10:19:25;9.52;;;7.20;;
16320;SDS011;8269;50.990;4.494;2022-08-19T10:21:57;11.20;;;7.07;;
16320;SDS011;8269;50.990;4.494;2022-08-19T10:24:23;10.98;;;7.18;;
16320;SDS011;8269;50.990;4.494;2022-08-19T10:26:50;8.63;;;6.45;;
16320;SDS011;8269;50.990;4.494;2022-08-19T10:29:16;11.43;;;6.65;;
16320;SDS011;8269;50.990;4.494;2022-08-19T10:31:42;8.43;;;6.47;;
16320;SDS011;8269;50.990;4.494;2022-08-19T10:34:08;10.45;;;6.00;;
16320;SDS011;8269;50.990;4.494;2022-08-19T10:36:35;8.85;;;5.75;;
16320;SDS011;8269;50.990;4.494;2022-08-19T10:39:04;7.68;;;5.53;;
16320;SDS011;8269;50.990;4.494;2022-08-19T10:41:34;9.13;;;5.75;;
16320;SDS011;8269;50.990;4.494;2022-08-19T10:44:06;8.38;;;5.55;;
16320;SDS011;8269;50.990;4.494;2022-08-19T10:46:33;9.43;;;4.97;;
16320;SDS011;8269;50.990;4.494;2022-08-19T10:49:01;7.45;;;5.07;;
16320;SDS011;8269;50.990;4.494;2022-08-19T10:51:28;8.68;;;5.05;;
16320;SDS011;8269;50.990;4.494;2022-08-19T10:54:12;11.13;;;5.22;;
16320;SDS011;8269;50.990;4.494;2022-08-19T10:56:38;10.25;;;5.78;;
16320;SDS011;8269;50.990;4.494;2022-08-19T10:59:17;10.70;;;5.78;;
16320;SDS011;8269;50.990;4.494;2022-08-19T11:01:47;10.05;;;5.20;;
16320;SDS011;8269;50.990;4.494;2022-08-19T11:04:13;9.15;;;5.38;;
16320;SDS011;8269;50.990;4.494;2022-08-19T11:06:43;9.57;;;5.32;;
16320;SDS011;8269;50.990;4.494;2022-08-19T11:09:12;7.38;;;5.50;;
16320;SDS011;8269;50.990;4.494;2022-08-19T11:11:40;7.82;;;5.50;;
16320;SDS011;8269;50.990;4.494;2022-08-19T11:14:07;8.93;;;5.25;;
16320;SDS011;8269;50.990;4.494;2022-08-19T11:16:37;8.15;;;5.90;;
16320;SDS011;8269;50.990;4.494;2022-08-19T11:19:04;8.75;;;5.40;;
16320;SDS011;8269;50.990;4.494;2022-08-19T11:21:35;9.48;;;5.28;;
16320;SDS011;8269;50.990;4.494;2022-08-19T11:24:12;8.57;;;5.60;;
16320;SDS011;8269;50.990;4.494;2022-08-19T11:26:43;9.13;;;5.90;;
16320;SDS011;8269;50.990;4.494;2022-08-19T11:29:10;9.07;;;6.00;;
16320;SDS011;8269;50.990;4.494;2022-08-19T11:31:38;7.80;;;5.60;;
16320;SDS011;8269;50.990;4.494;2022-08-19T11:34:10;7.63;;;5.28;;
16320;SDS011;8269;50.990;4.494;2022-08-19T11:36:39;9.15;;;6.45;;
16320;SDS011;8269;50.990;4.494;2022-08-19T11:39:06;8.95;;;6.32;;
16320;SDS011;8269;50.990;4.494;2022-08-19T11:41:33;9.27;;;6.15;;
16320;SDS011;8269;50.990;4.494;2022-08-19T11:43:59;8.80;;;6.43;;
16320;SDS011;8269;50.990;4.494;2022-08-19T11:46:27;9.77;;;6.47;;
16320;SDS011;8269;50.990;4.494;2022-08-19T11:48:57;9.48;;;5.70;;
16320;SDS011;8269;50.990;4.494;2022-08-19T11:51:24;10.80;;;5.63;;
16320;SDS011;8269;50.990;4.494;2022-08-19T11:53:50;7.18;;;5.40;;
16320;SDS011;8269;50.990;4.494;2022-08-19T11:56:18;9.60;;;5.88;;
16320;SDS011;8269;50.990;4.494;2022-08-19T11:58:44;11.63;;;5.78;;
16320;SDS011;8269;50.990;4.494;2022-08-19T12:01:11;8.00;;;5.60;;
16320;SDS011;8269;50.990;4.494;2022-08-19T12:03:40;7.53;;;5.60;;
16320;SDS011;8269;50.990;4.494;2022-08-19T12:06:09;7.68;;;5.07;;
16320;SDS011;8269;50.990;4.494;2022-08-19T12:08:38;7.80;;;4.80;;
16320;SDS011;8269;50.990;4.494;2022-08-19T12:11:08;8.45;;;4.75;;
16320;SDS011;8269;50.990;4.494;2022-08-19T12:13:34;7.78;;;4.57;;
16320;SDS011;8269;50.990;4.494;2022-08-19T12:16:09;7.93;;;4.03;;
16320;SDS011;8269;50.990;4.494;2022-08-19T12:18:42;5.90;;;3.63;;
16320;SDS011;8269;50.990;4.494;2022-08-19T12:21:11;7.35;;;4.50;;
16320;SDS011;8269;50.990;4.494;2022-08-19T12:23:39;9.50;;;5.07;;
16320;SDS011;8269;50.990;4.494;2022-08-19T12:26:05;6.53;;;4.63;;
16320;SDS011;8269;50.990;4.494;2022-08-19T12:28:31;9.40;;;5.53;;
16320;SDS011;8269;50.990;4.494;2022-08-19T12:30:57;9.50;;;5.20;;
16320;SDS011;8269;50.990;4.494;2022-08-19T12:33:23;8.88;;;5.43;;
16320;SDS011;8269;50.990;4.494;2022-08-19T12:35:52;10.40;;;5.93;;
16320;SDS011;8269;50.990;4.494;2022-08-19T12:38:18;13.32;;;6.22;;
16320;SDS011;8269;50.990;4.494;2022-08-19T12:40:46;7.47;;;6.00;;
16320;SDS011;8269;50.990;4.494;2022-08-19T12:43:13;13.05;;;6.50;;
16320;SDS011;8269;50.990;4.494;2022-08-19T12:45:41;11.13;;;7.05;;
16320;SDS011;8269;50.990;4.494;2022-08-19T12:48:07;10.07;;;7.50;;
16320;SDS011;8269;50.990;4.494;2022-08-19T12:50:33;8.18;;;6.93;;
16320;SDS011;8269;50.990;4.494;2022-08-19T12:52:59;10.65;;;7.90;;
16320;SDS011;8269;50.990;4.494;2022-08-19T12:55:25;10.82;;;7.78;;
16320;SDS011;8269;50.990;4.494;2022-08-19T12:57:53;10.18;;;7.47;;
16320;SDS011;8269;50.990;4.494;2022-08-19T13:00:19;9.32;;;6.95;;
16320;SDS011;8269;50.990;4.494;2022-08-19T13:02:47;8.93;;;6.47;;
16320;SDS011;8269;50.990;4.494;2022-08-19T13:05:17;7.35;;;6.07;;
16320;SDS011;8269;50.990;4.494;2022-08-19T13:07:48;7.53;;;6.53;;
16320;SDS011;8269;50.990;4.494;2022-08-19T13:10:17;10.48;;;6.35;;
16320;SDS011;8269;50.990;4.494;2022-08-19T13:12:45;7.97;;;5.70;;
16320;SDS011;8269;50.990;4.494;2022-08-19T13:15:12;8.57;;;6.65;;
16320;SDS011;8269;50.990;4.494;2022-08-19T13:17:38;7.47;;;5.65;;
16320;SDS011;8269;50.990;4.494;2022-08-19T13:20:05;9.52;;;6.10;;
16320;SDS011;8269;50.990;4.494;2022-08-19T13:22:36;7.32;;;5.53;;
16320;SDS011;8269;50.990;4.494;2022-08-19T13:25:03;10.38;;;6.32;;
16320;SDS011;8269;50.990;4.494;2022-08-19T13:27:30;9.35;;;5.65;;
16320;SDS011;8269;50.990;4.494;2022-08-19T13:29:56;10.45;;;5.80;;
16320;SDS011;8269;50.990;4.494;2022-08-19T13:32:40;5.80;;;4.47;;
16320;SDS011;8269;50.990;4.494;2022-08-19T13:35:26;6.03;;;4.07;;
16320;SDS011;8269;50.990;4.494;2022-08-19T13:37:51;4.95;;;3.30;;
16320;SDS011;8269;50.990;4.494;2022-08-19T13:40:18;5.05;;;3.20;;
16320;SDS011;8269;50.990;4.494;2022-08-19T13:42:49;5.45;;;3.20;;
16320;SDS011;8269;50.990;4.494;2022-08-19T13:45:18;4.95;;;3.00;;
16320;SDS011;8269;50.990;4.494;2022-08-19T13:47:46;5.00;;;3.03;;
16320;SDS011;8269;50.990;4.494;2022-08-19T13:50:20;4.15;;;3.30;;
16320;SDS011;8269;50.990;4.494;2022-08-19T13:52:51;7.30;;;3.42;;
16320;SDS011;8269;50.990;4.494;2022-08-19T13:55:18;7.93;;;3.13;;
16320;SDS011;8269;50.990;4.494;2022-08-19T13:57:44;6.00;;;3.00;;
16320;SDS011;8269;50.990;4.494;2022-08-19T14:00:13;4.57;;;2.95;;
16320;SDS011;8269;50.990;4.494;2022-08-19T14:02:43;3.88;;;2.78;;
16320;SDS011;8269;50.990;4.494;2022-08-19T14:05:10;5.93;;;2.70;;
16320;SDS011;8269;50.990;4.494;2022-08-19T14:07:39;3.72;;;2.83;;
16320;SDS011;8269;50.990;4.494;2022-08-19T14:10:05;4.20;;;2.50;;
16320;SDS011;8269;50.990;4.494;2022-08-19T14:12:33;5.05;;;3.08;;
16320;SDS011;8269;50.990;4.494;2022-08-19T14:15:00;3.97;;;2.83;;
16320;SDS011;8269;50.990;4.494;2022-08-19T14:17:27;4.53;;;2.53;;
16320;SDS011;8269;50.990;4.494;2022-08-19T14:19:57;4.43;;;2.38;;
16320;SDS011;8269;50.990;4.494;2022-08-19T14:22:25;5.22;;;2.30;;
16320;SDS011;8269;50.990;4.494;2022-08-19T14:24:51;4.40;;;2.30;;
16320;SDS011;8269;50.990;4.494;2022-08-19T14:27:17;3.97;;;2.10;;
16320;SDS011;8269;50.990;4.494;2022-08-19T14:29:42;4.05;;;1.83;;
16320;SDS011;8269;50.990;4.494;2022-08-19T14:32:10;3.17;;;1.65;;
16320;SDS011;8269;50.990;4.494;2022-08-19T14:34:36;3.55;;;1.92;;
16320;SDS011;8269;50.990;4.494;2022-08-19T14:37:02;5.85;;;2.03;;
16320;SDS011;8269;50.990;4.494;2022-08-19T14:39:27;4.78;;;2.67;;
16320;SDS011;8269;50.990;4.494;2022-08-19T14:41:53;4.65;;;2.45;;
16320;SDS011;8269;50.990;4.494;2022-08-19T14:44:19;5.35;;;2.15;;
16320;SDS011;8269;50.990;4.494;2022-08-19T14:46:44;3.13;;;2.13;;
16320;SDS011;8269;50.990;4.494;2022-08-19T14:49:10;2.75;;;1.60;;
16320;SDS011;8269;50.990;4.494;2022-08-19T14:51:35;2.58;;;1.45;;
16320;SDS011;8269;50.990;4.494;2022-08-19T14:54:01;1.52;;;1.20;;
16320;SDS011;8269;50.990;4.494;2022-08-19T14:56:27;2.75;;;1.30;;
16320;SDS011;8269;50.990;4.494;2022-08-19T14:58:55;2.00;;;1.40;;